KPHN/PHN METAR and TAF weather

Enter ICAO airport designator
Station Type Date Time Source
KPHN METAR 2020/11/28 19:17 UTC NOAA

KPHN 281917Z AUTO 22006G14KT 10SM CLR 07/M05 A3007 RMK AO2


Station Type Date Time Source
KPHN Decoded METAR 2020/11/28 19:17 UTC NOAA

St. Clair County International, MI, United States (KPHN) 42-55N 082-32W
Nov 28, 2020 - 02:17 PM EST / 2020.11.28 1917 UTC
Wind: from the SW (220 degrees) at 7 MPH (6 KT) gusting to 16 MPH (14 KT):0
Visibility: 10 mile(s):0
Sky conditions: clear
Temperature: 44 F (7 C)
Dew Point: 23 F (-5 C)
Relative Humidity: 42%
Pressure (altimeter): 30.07 in. Hg (1018 hPa)
ob: KPHN 281917Z AUTO 22006G14KT 10SM CLR 07/M05 A3007 RMK AO2
cycle: 19

Station Type Date Time Source
KPHN TAF UTC NOAA

Error!

Example: see airport list